sensor_id;sensor_type;location;lat;lon;timestamp;P1;durP1;ratioP1;P2;durP2;ratioP2
20559;SDS011;10438;51.454;6.718;2022-12-20T00:00:53;5.43;;;2.23;;
20559;SDS011;10438;51.454;6.718;2022-12-20T00:03:19;7.60;;;3.03;;
20559;SDS011;10438;51.454;6.718;2022-12-20T00:05:45;5.37;;;2.33;;
20559;SDS011;10438;51.454;6.718;2022-12-20T00:08:11;6.17;;;2.40;;
20559;SDS011;10438;51.454;6.718;2022-12-20T00:10:37;6.23;;;2.00;;
20559;SDS011;10438;51.454;6.718;2022-12-20T00:13:03;5.93;;;2.23;;
20559;SDS011;10438;51.454;6.718;2022-12-20T00:15:29;7.67;;;2.50;;
20559;SDS011;10438;51.454;6.718;2022-12-20T00:17:55;4.53;;;2.00;;
20559;SDS011;10438;51.454;6.718;2022-12-20T00:20:21;5.50;;;2.00;;
20559;SDS011;10438;51.454;6.718;2022-12-20T00:22:47;4.57;;;2.13;;
20559;SDS011;10438;51.454;6.718;2022-12-20T00:25:13;4.57;;;2.10;;
20559;SDS011;10438;51.454;6.718;2022-12-20T00:27:38;6.67;;;2.50;;
20559;SDS011;10438;51.454;6.718;2022-12-20T00:30:04;5.70;;;2.17;;
20559;SDS011;10438;51.454;6.718;2022-12-20T00:32:48;4.57;;;1.87;;
20559;SDS011;10438;51.454;6.718;2022-12-20T00:35:14;6.30;;;1.90;;
20559;SDS011;10438;51.454;6.718;2022-12-20T00:37:39;5.67;;;2.20;;
20559;SDS011;10438;51.454;6.718;2022-12-20T00:40:05;7.03;;;2.03;;
20559;SDS011;10438;51.454;6.718;2022-12-20T00:42:31;7.03;;;2.13;;
20559;SDS011;10438;51.454;6.718;2022-12-20T00:44:57;7.27;;;2.00;;
20559;SDS011;10438;51.454;6.718;2022-12-20T00:47:22;6.00;;;2.20;;
20559;SDS011;10438;51.454;6.718;2022-12-20T00:49:48;4.80;;;1.80;;
20559;SDS011;10438;51.454;6.718;2022-12-20T00:52:13;5.17;;;2.17;;
20559;SDS011;10438;51.454;6.718;2022-12-20T00:54:39;6.70;;;2.27;;
20559;SDS011;10438;51.454;6.718;2022-12-20T00:57:05;4.37;;;2.00;;
20559;SDS011;10438;51.454;6.718;2022-12-20T00:59:31;4.43;;;1.87;;
20559;SDS011;10438;51.454;6.718;2022-12-20T01:01:57;4.63;;;2.00;;
20559;SDS011;10438;51.454;6.718;2022-12-20T01:04:23;7.93;;;2.07;;
20559;SDS011;10438;51.454;6.718;2022-12-20T01:06:51;4.77;;;2.07;;
20559;SDS011;10438;51.454;6.718;2022-12-20T01:09:17;5.00;;;1.63;;
20559;SDS011;10438;51.454;6.718;2022-12-20T01:11:42;6.40;;;2.20;;
20559;SDS011;10438;51.454;6.718;2022-12-20T01:14:12;5.03;;;1.70;;
20559;SDS011;10438;51.454;6.718;2022-12-20T01:16:40;4.77;;;1.70;;
20559;SDS011;10438;51.454;6.718;2022-12-20T01:19:07;5.33;;;2.00;;
20559;SDS011;10438;51.454;6.718;2022-12-20T01:21:34;5.43;;;2.17;;
20559;SDS011;10438;51.454;6.718;2022-12-20T01:24:00;4.77;;;1.87;;
20559;SDS011;10438;51.454;6.718;2022-12-20T01:26:27;4.53;;;1.83;;
20559;SDS011;10438;51.454;6.718;2022-12-20T01:28:57;6.53;;;2.13;;
20559;SDS011;10438;51.454;6.718;2022-12-20T01:31:24;5.70;;;1.70;;
20559;SDS011;10438;51.454;6.718;2022-12-20T01:33:51;5.17;;;1.93;;
20559;SDS011;10438;51.454;6.718;2022-12-20T01:36:18;3.53;;;1.60;;
20559;SDS011;10438;51.454;6.718;2022-12-20T01:38:46;4.70;;;1.90;;
20559;SDS011;10438;51.454;6.718;2022-12-20T01:41:13;6.13;;;1.83;;
20559;SDS011;10438;51.454;6.718;2022-12-20T01:43:50;5.03;;;1.70;;
20559;SDS011;10438;51.454;6.718;2022-12-20T01:46:19;3.73;;;1.70;;
20559;SDS011;10438;51.454;6.718;2022-12-20T01:48:57;7.17;;;1.70;;
20559;SDS011;10438;51.454;6.718;2022-12-20T01:51:28;4.83;;;2.03;;
20559;SDS011;10438;51.454;6.718;2022-12-20T01:53:57;3.90;;;1.60;;
20559;SDS011;10438;51.454;6.718;2022-12-20T01:56:35;9.20;;;2.00;;
20559;SDS011;10438;51.454;6.718;2022-12-20T01:59:01;3.87;;;1.47;;
20559;SDS011;10438;51.454;6.718;2022-12-20T02:01:27;6.53;;;2.03;;
20559;SDS011;10438;51.454;6.718;2022-12-20T02:03:53;5.40;;;1.90;;
20559;SDS011;10438;51.454;6.718;2022-12-20T02:06:21;6.33;;;1.77;;
20559;SDS011;10438;51.454;6.718;2022-12-20T02:08:49;3.70;;;1.50;;
20559;SDS011;10438;51.454;6.718;2022-12-20T02:16:54;7.87;;;2.10;;
20559;SDS011;10438;51.454;6.718;2022-12-20T02:19:34;4.50;;;1.93;;
20559;SDS011;10438;51.454;6.718;2022-12-20T02:25:42;4.87;;;1.73;;
20559;SDS011;10438;51.454;6.718;2022-12-20T02:31:38;5.23;;;2.10;;
20559;SDS011;10438;51.454;6.718;2022-12-20T02:34:07;5.80;;;2.67;;
20559;SDS011;10438;51.454;6.718;2022-12-20T02:36:34;6.70;;;2.47;;
20559;SDS011;10438;51.454;6.718;2022-12-20T02:39:00;4.73;;;2.27;;
20559;SDS011;10438;51.454;6.718;2022-12-20T02:41:26;5.27;;;1.90;;
20559;SDS011;10438;51.454;6.718;2022-12-20T02:44:04;6.63;;;1.80;;
20559;SDS011;10438;51.454;6.718;2022-12-20T02:46:52;4.97;;;1.93;;
20559;SDS011;10438;51.454;6.718;2022-12-20T02:49:20;5.60;;;1.90;;
20559;SDS011;10438;51.454;6.718;2022-12-20T02:51:51;8.60;;;2.20;;
20559;SDS011;10438;51.454;6.718;2022-12-20T02:54:20;7.23;;;2.50;;
20559;SDS011;10438;51.454;6.718;2022-12-20T02:59:17;5.33;;;1.90;;
20559;SDS011;10438;51.454;6.718;2022-12-20T03:01:47;6.80;;;2.30;;
20559;SDS011;10438;51.454;6.718;2022-12-20T03:04:18;6.40;;;1.97;;
20559;SDS011;10438;51.454;6.718;2022-12-20T03:09:32;4.70;;;2.10;;
20559;SDS011;10438;51.454;6.718;2022-12-20T03:12:02;5.20;;;2.40;;
20559;SDS011;10438;51.454;6.718;2022-12-20T03:14:28;5.47;;;2.23;;
20559;SDS011;10438;51.454;6.718;2022-12-20T03:16:54;7.80;;;2.50;;
20559;SDS011;10438;51.454;6.718;2022-12-20T03:19:19;10.13;;;2.43;;
20559;SDS011;10438;51.454;6.718;2022-12-20T03:21:45;5.87;;;2.57;;
20559;SDS011;10438;51.454;6.718;2022-12-20T03:24:11;6.10;;;2.50;;
20559;SDS011;10438;51.454;6.718;2022-12-20T03:26:37;5.00;;;2.53;;
20559;SDS011;10438;51.454;6.718;2022-12-20T03:29:04;5.80;;;2.50;;
20559;SDS011;10438;51.454;6.718;2022-12-20T03:31:29;6.17;;;2.80;;
20559;SDS011;10438;51.454;6.718;2022-12-20T03:33:55;7.57;;;2.80;;
20559;SDS011;10438;51.454;6.718;2022-12-20T03:36:21;5.47;;;2.73;;
20559;SDS011;10438;51.454;6.718;2022-12-20T03:38:48;6.23;;;3.10;;
20559;SDS011;10438;51.454;6.718;2022-12-20T03:41:15;5.97;;;3.30;;
20559;SDS011;10438;51.454;6.718;2022-12-20T03:43:41;6.17;;;2.97;;
20559;SDS011;10438;51.454;6.718;2022-12-20T03:46:06;11.27;;;3.30;;
20559;SDS011;10438;51.454;6.718;2022-12-20T03:48:32;8.03;;;3.37;;
20559;SDS011;10438;51.454;6.718;2022-12-20T03:50:57;5.47;;;3.00;;
20559;SDS011;10438;51.454;6.718;2022-12-20T03:53:23;9.13;;;3.50;;
20559;SDS011;10438;51.454;6.718;2022-12-20T03:55:48;8.87;;;3.57;;
20559;SDS011;10438;51.454;6.718;2022-12-20T03:58:14;6.47;;;3.43;;
20559;SDS011;10438;51.454;6.718;2022-12-20T04:00:39;7.07;;;3.43;;
20559;SDS011;10438;51.454;6.718;2022-12-20T04:03:05;7.90;;;3.67;;
20559;SDS011;10438;51.454;6.718;2022-12-20T04:05:31;7.80;;;3.90;;
20559;SDS011;10438;51.454;6.718;2022-12-20T04:07:56;10.97;;;3.80;;
20559;SDS011;10438;51.454;6.718;2022-12-20T04:10:22;8.63;;;4.20;;
20559;SDS011;10438;51.454;6.718;2022-12-20T04:12:47;9.03;;;4.17;;
20559;SDS011;10438;51.454;6.718;2022-12-20T04:15:13;8.40;;;4.27;;
20559;SDS011;10438;51.454;6.718;2022-12-20T04:17:39;7.43;;;4.30;;
20559;SDS011;10438;51.454;6.718;2022-12-20T04:20:05;7.90;;;3.97;;
20559;SDS011;10438;51.454;6.718;2022-12-20T04:22:49;8.20;;;4.47;;
20559;SDS011;10438;51.454;6.718;2022-12-20T04:25:16;6.77;;;4.13;;
20559;SDS011;10438;51.454;6.718;2022-12-20T04:27:43;11.20;;;4.27;;
20559;SDS011;10438;51.454;6.718;2022-12-20T04:30:10;11.97;;;4.00;;
20559;SDS011;10438;51.454;6.718;2022-12-20T04:32:36;9.07;;;4.33;;
20559;SDS011;10438;51.454;6.718;2022-12-20T04:35:01;9.23;;;4.07;;
20559;SDS011;10438;51.454;6.718;2022-12-20T04:37:28;7.67;;;4.17;;
20559;SDS011;10438;51.454;6.718;2022-12-20T04:39:54;9.07;;;4.20;;
20559;SDS011;10438;51.454;6.718;2022-12-20T04:42:20;7.07;;;4.20;;
20559;SDS011;10438;51.454;6.718;2022-12-20T04:44:47;7.80;;;4.40;;
20559;SDS011;10438;51.454;6.718;2022-12-20T04:47:12;9.97;;;4.53;;
20559;SDS011;10438;51.454;6.718;2022-12-20T04:49:38;11.17;;;5.00;;
20559;SDS011;10438;51.454;6.718;2022-12-20T04:52:03;7.97;;;4.53;;
20559;SDS011;10438;51.454;6.718;2022-12-20T04:54:47;7.90;;;4.17;;
20559;SDS011;10438;51.454;6.718;2022-12-20T04:57:13;10.20;;;4.37;;
20559;SDS011;10438;51.454;6.718;2022-12-20T04:59:38;8.80;;;5.07;;
20559;SDS011;10438;51.454;6.718;2022-12-20T05:02:04;9.67;;;5.60;;
20559;SDS011;10438;51.454;6.718;2022-12-20T05:04:30;9.07;;;5.13;;
20559;SDS011;10438;51.454;6.718;2022-12-20T05:06:55;10.57;;;5.53;;
20559;SDS011;10438;51.454;6.718;2022-12-20T05:09:21;11.40;;;4.90;;
20559;SDS011;10438;51.454;6.718;2022-12-20T05:11:47;8.20;;;5.20;;
20559;SDS011;10438;51.454;6.718;2022-12-20T05:14:12;8.77;;;5.07;;
20559;SDS011;10438;51.454;6.718;2022-12-20T05:16:38;11.53;;;5.30;;
20559;SDS011;10438;51.454;6.718;2022-12-20T05:19:03;8.90;;;4.93;;
20559;SDS011;10438;51.454;6.718;2022-12-20T05:21:29;10.50;;;5.40;;
20559;SDS011;10438;51.454;6.718;2022-12-20T05:24:13;7.73;;;5.07;;
20559;SDS011;10438;51.454;6.718;2022-12-20T05:26:57;9.60;;;4.93;;
20559;SDS011;10438;51.454;6.718;2022-12-20T05:29:23;10.33;;;4.90;;
20559;SDS011;10438;51.454;6.718;2022-12-20T05:31:49;10.07;;;4.83;;
20559;SDS011;10438;51.454;6.718;2022-12-20T05:34:14;9.63;;;5.27;;
20559;SDS011;10438;51.454;6.718;2022-12-20T05:36:40;9.80;;;5.50;;
20559;SDS011;10438;51.454;6.718;2022-12-20T05:39:05;11.00;;;5.20;;
20559;SDS011;10438;51.454;6.718;2022-12-20T05:41:31;12.37;;;5.03;;
20559;SDS011;10438;51.454;6.718;2022-12-20T05:43:57;10.27;;;4.90;;
20559;SDS011;10438;51.454;6.718;2022-12-20T05:46:22;8.40;;;4.70;;
20559;SDS011;10438;51.454;6.718;2022-12-20T05:48:48;10.73;;;4.70;;
20559;SDS011;10438;51.454;6.718;2022-12-20T05:51:13;10.47;;;4.47;;
20559;SDS011;10438;51.454;6.718;2022-12-20T05:53:39;9.10;;;4.20;;
20559;SDS011;10438;51.454;6.718;2022-12-20T05:56:05;9.27;;;4.50;;
20559;SDS011;10438;51.454;6.718;2022-12-20T05:58:30;8.50;;;4.37;;
20559;SDS011;10438;51.454;6.718;2022-12-20T06:00:58;8.80;;;4.10;;
20559;SDS011;10438;51.454;6.718;2022-12-20T06:03:25;9.17;;;4.37;;
20559;SDS011;10438;51.454;6.718;2022-12-20T06:05:51;8.13;;;3.90;;
20559;SDS011;10438;51.454;6.718;2022-12-20T06:08:16;8.83;;;4.00;;
20559;SDS011;10438;51.454;6.718;2022-12-20T06:10:42;8.27;;;3.97;;
20559;SDS011;10438;51.454;6.718;2022-12-20T06:13:08;7.20;;;3.67;;
20559;SDS011;10438;51.454;6.718;2022-12-20T06:15:34;7.27;;;4.10;;
20559;SDS011;10438;51.454;6.718;2022-12-20T06:18:00;8.57;;;4.07;;
20559;SDS011;10438;51.454;6.718;2022-12-20T06:20:26;7.60;;;4.00;;
20559;SDS011;10438;51.454;6.718;2022-12-20T06:22:52;10.57;;;4.57;;
20559;SDS011;10438;51.454;6.718;2022-12-20T06:25:18;10.43;;;4.10;;
20559;SDS011;10438;51.454;6.718;2022-12-20T06:27:44;9.53;;;3.50;;
20559;SDS011;10438;51.454;6.718;2022-12-20T06:30:10;7.73;;;3.60;;
20559;SDS011;10438;51.454;6.718;2022-12-20T06:32:36;8.00;;;3.73;;
20559;SDS011;10438;51.454;6.718;2022-12-20T06:35:02;8.30;;;3.70;;
20559;SDS011;10438;51.454;6.718;2022-12-20T06:37:28;6.00;;;3.80;;
20559;SDS011;10438;51.454;6.718;2022-12-20T06:39:54;7.73;;;3.87;;
20559;SDS011;10438;51.454;6.718;2022-12-20T06:42:19;8.13;;;4.17;;
20559;SDS011;10438;51.454;6.718;2022-12-20T06:44:45;9.77;;;4.20;;
20559;SDS011;10438;51.454;6.718;2022-12-20T06:47:10;7.47;;;3.70;;
20559;SDS011;10438;51.454;6.718;2022-12-20T06:49:36;6.53;;;3.77;;
20559;SDS011;10438;51.454;6.718;2022-12-20T06:52:01;7.30;;;3.67;;
20559;SDS011;10438;51.454;6.718;2022-12-20T06:54:27;6.53;;;3.30;;
20559;SDS011;10438;51.454;6.718;2022-12-20T06:56:52;8.50;;;3.30;;
20559;SDS011;10438;51.454;6.718;2022-12-20T06:59:18;7.07;;;3.53;;
20559;SDS011;10438;51.454;6.718;2022-12-20T07:01:44;8.53;;;3.17;;
20559;SDS011;10438;51.454;6.718;2022-12-20T07:04:09;8.27;;;3.67;;
20559;SDS011;10438;51.454;6.718;2022-12-20T07:06:35;5.50;;;3.17;;
20559;SDS011;10438;51.454;6.718;2022-12-20T07:09:00;6.80;;;3.00;;
20559;SDS011;10438;51.454;6.718;2022-12-20T07:11:26;11.60;;;3.40;;
20559;SDS011;10438;51.454;6.718;2022-12-20T07:13:55;6.50;;;3.37;;
20559;SDS011;10438;51.454;6.718;2022-12-20T07:16:21;5.63;;;2.90;;
20559;SDS011;10438;51.454;6.718;2022-12-20T07:18:48;9.23;;;3.57;;
20559;SDS011;10438;51.454;6.718;2022-12-20T07:21:18;10.00;;;2.97;;
20559;SDS011;10438;51.454;6.718;2022-12-20T07:23:44;7.17;;;3.40;;
20559;SDS011;10438;51.454;6.718;2022-12-20T07:26:10;6.20;;;3.13;;
20559;SDS011;10438;51.454;6.718;2022-12-20T07:28:37;8.10;;;3.55;;
20559;SDS011;10438;51.454;6.718;2022-12-20T07:31:02;6.23;;;3.33;;
20559;SDS011;10438;51.454;6.718;2022-12-20T07:33:29;9.03;;;3.30;;
20559;SDS011;10438;51.454;6.718;2022-12-20T07:35:59;8.40;;;3.17;;
20559;SDS011;10438;51.454;6.718;2022-12-20T07:38:26;6.40;;;3.00;;
20559;SDS011;10438;51.454;6.718;2022-12-20T07:40:51;7.03;;;3.20;;
20559;SDS011;10438;51.454;6.718;2022-12-20T07:43:17;7.50;;;2.87;;
20559;SDS011;10438;51.454;6.718;2022-12-20T07:45:42;9.13;;;2.93;;
20559;SDS011;10438;51.454;6.718;2022-12-20T07:48:08;7.43;;;2.83;;
20559;SDS011;10438;51.454;6.718;2022-12-20T07:50:33;6.43;;;3.03;;
20559;SDS011;10438;51.454;6.718;2022-12-20T07:52:59;6.40;;;2.80;;
20559;SDS011;10438;51.454;6.718;2022-12-20T07:55:27;5.83;;;2.50;;
20559;SDS011;10438;51.454;6.718;2022-12-20T07:57:56;7.13;;;3.23;;
20559;SDS011;10438;51.454;6.718;2022-12-20T08:00:27;7.70;;;2.93;;
20559;SDS011;10438;51.454;6.718;2022-12-20T08:02:57;7.90;;;2.90;;
20559;SDS011;10438;51.454;6.718;2022-12-20T08:05:33;6.13;;;2.93;;
20559;SDS011;10438;51.454;6.718;2022-12-20T08:08:02;8.90;;;2.90;;
20559;SDS011;10438;51.454;6.718;2022-12-20T08:10:29;5.90;;;3.30;;
20559;SDS011;10438;51.454;6.718;2022-12-20T08:12:55;6.80;;;3.07;;
20559;SDS011;10438;51.454;6.718;2022-12-20T08:15:22;17.73;;;3.47;;
20559;SDS011;10438;51.454;6.718;2022-12-20T08:17:48;8.03;;;2.83;;
20559;SDS011;10438;51.454;6.718;2022-12-20T08:20:15;8.23;;;3.00;;
20559;SDS011;10438;51.454;6.718;2022-12-20T08:22:41;7.40;;;3.00;;
20559;SDS011;10438;51.454;6.718;2022-12-20T08:25:07;6.90;;;3.00;;
20559;SDS011;10438;51.454;6.718;2022-12-20T08:27:33;5.03;;;2.60;;
20559;SDS011;10438;51.454;6.718;2022-12-20T08:29:58;4.93;;;2.53;;
20559;SDS011;10438;51.454;6.718;2022-12-20T08:32:24;8.03;;;2.67;;
20559;SDS011;10438;51.454;6.718;2022-12-20T08:34:51;9.50;;;2.60;;
20559;SDS011;10438;51.454;6.718;2022-12-20T08:37:17;6.73;;;3.03;;
20559;SDS011;10438;51.454;6.718;2022-12-20T08:39:43;8.50;;;3.10;;
20559;SDS011;10438;51.454;6.718;2022-12-20T08:42:09;7.63;;;3.10;;
20559;SDS011;10438;51.454;6.718;2022-12-20T08:44:34;7.10;;;2.70;;
20559;SDS011;10438;51.454;6.718;2022-12-20T08:47:00;7.43;;;2.77;;
20559;SDS011;10438;51.454;6.718;2022-12-20T08:49:25;6.20;;;2.67;;
20559;SDS011;10438;51.454;6.718;2022-12-20T08:51:51;8.23;;;3.20;;
20559;SDS011;10438;51.454;6.718;2022-12-20T08:54:16;5.27;;;2.57;;
20559;SDS011;10438;51.454;6.718;2022-12-20T08:56:42;8.30;;;2.97;;
20559;SDS011;10438;51.454;6.718;2022-12-20T08:59:07;5.40;;;2.73;;
20559;SDS011;10438;51.454;6.718;2022-12-20T09:01:33;9.23;;;3.33;;
20559;SDS011;10438;51.454;6.718;2022-12-20T09:03:58;5.87;;;3.00;;
20559;SDS011;10438;51.454;6.718;2022-12-20T09:06:24;6.43;;;3.07;;
20559;SDS011;10438;51.454;6.718;2022-12-20T09:08:50;8.90;;;2.90;;
20559;SDS011;10438;51.454;6.718;2022-12-20T09:11:17;7.70;;;2.93;;
20559;SDS011;10438;51.454;6.718;2022-12-20T09:13:45;7.33;;;3.10;;
20559;SDS011;10438;51.454;6.718;2022-12-20T09:16:13;8.30;;;3.00;;
20559;SDS011;10438;51.454;6.718;2022-12-20T09:18:41;6.07;;;3.13;;
20559;SDS011;10438;51.454;6.718;2022-12-20T09:21:07;5.83;;;2.53;;
20559;SDS011;10438;51.454;6.718;2022-12-20T09:23:34;9.57;;;3.40;;
20559;SDS011;10438;51.454;6.718;2022-12-20T09:26:06;8.23;;;3.43;;
20559;SDS011;10438;51.454;6.718;2022-12-20T09:28:34;7.83;;;2.87;;
20559;SDS011;10438;51.454;6.718;2022-12-20T09:30:59;7.60;;;2.90;;
20559;SDS011;10438;51.454;6.718;2022-12-20T09:33:27;7.87;;;2.73;;
20559;SDS011;10438;51.454;6.718;2022-12-20T09:35:54;6.97;;;3.00;;
20559;SDS011;10438;51.454;6.718;2022-12-20T09:38:20;5.83;;;2.50;;
20559;SDS011;10438;51.454;6.718;2022-12-20T09:40:46;8.20;;;3.00;;
20559;SDS011;10438;51.454;6.718;2022-12-20T09:43:18;6.70;;;2.70;;
20559;SDS011;10438;51.454;6.718;2022-12-20T09:45:45;7.60;;;2.90;;
20559;SDS011;10438;51.454;6.718;2022-12-20T09:48:18;6.83;;;3.07;;
20559;SDS011;10438;51.454;6.718;2022-12-20T09:58:59;8.80;;;3.27;;
20559;SDS011;10438;51.454;6.718;2022-12-20T10:01:29;7.60;;;3.03;;
20559;SDS011;10438;51.454;6.718;2022-12-20T10:03:57;8.13;;;3.60;;
20559;SDS011;10438;51.454;6.718;2022-12-20T10:09:27;9.10;;;2.93;;
20559;SDS011;10438;51.454;6.718;2022-12-20T10:14:40;5.07;;;3.10;;
20559;SDS011;10438;51.454;6.718;2022-12-20T10:17:38;5.80;;;3.17;;
20559;SDS011;10438;51.454;6.718;2022-12-20T10:23:03;7.60;;;3.30;;
20559;SDS011;10438;51.454;6.718;2022-12-20T10:25:47;7.10;;;2.93;;
20559;SDS011;10438;51.454;6.718;2022-12-20T10:28:17;7.17;;;2.97;;
20559;SDS011;10438;51.454;6.718;2022-12-20T10:30:48;4.90;;;2.93;;
20559;SDS011;10438;51.454;6.718;2022-12-20T10:33:22;11.60;;;3.50;;
20559;SDS011;10438;51.454;6.718;2022-12-20T10:35:48;7.03;;;3.10;;
20559;SDS011;10438;51.454;6.718;2022-12-20T10:38:15;7.23;;;3.10;;
20559;SDS011;10438;51.454;6.718;2022-12-20T10:40:46;9.97;;;3.10;;
20559;SDS011;10438;51.454;6.718;2022-12-20T10:43:21;10.87;;;3.30;;
20559;SDS011;10438;51.454;6.718;2022-12-20T10:45:57;14.20;;;4.33;;
20559;SDS011;10438;51.454;6.718;2022-12-20T10:48:30;10.77;;;3.00;;
20559;SDS011;10438;51.454;6.718;2022-12-20T10:50:59;6.67;;;3.27;;
20559;SDS011;10438;51.454;6.718;2022-12-20T10:53:28;7.63;;;3.07;;
20559;SDS011;10438;51.454;6.718;2022-12-20T10:58:50;8.13;;;3.03;;
20559;SDS011;10438;51.454;6.718;2022-12-20T11:01:28;12.73;;;2.53;;
20559;SDS011;10438;51.454;6.718;2022-12-20T11:04:05;7.00;;;3.10;;
20559;SDS011;10438;51.454;6.718;2022-12-20T11:06:45;6.70;;;2.67;;
20559;SDS011;10438;51.454;6.718;2022-12-20T11:09:57;5.60;;;3.00;;
20559;SDS011;10438;51.454;6.718;2022-12-20T11:11:59;8.53;;;2.90;;
20559;SDS011;10438;51.454;6.718;2022-12-20T11:14:27;7.57;;;2.93;;
20559;SDS011;10438;51.454;6.718;2022-12-20T11:16:54;10.00;;;3.33;;
20559;SDS011;10438;51.454;6.718;2022-12-20T11:19:28;9.93;;;3.10;;
20559;SDS011;10438;51.454;6.718;2022-12-20T11:24:56;6.37;;;2.90;;
20559;SDS011;10438;51.454;6.718;2022-12-20T11:30:59;10.27;;;3.27;;
20559;SDS011;10438;51.454;6.718;2022-12-20T11:33:51;5.67;;;2.90;;
20559;SDS011;10438;51.454;6.718;2022-12-20T11:47:46;7.50;;;3.20;;
20559;SDS011;10438;51.454;6.718;2022-12-20T11:53:26;6.27;;;3.10;;
20559;SDS011;10438;51.454;6.718;2022-12-20T11:56:04;6.73;;;2.93;;
20559;SDS011;10438;51.454;6.718;2022-12-20T11:58:43;8.30;;;3.40;;
20559;SDS011;10438;51.454;6.718;2022-12-20T12:01:15;9.93;;;3.30;;
20559;SDS011;10438;51.454;6.718;2022-12-20T12:03:44;7.47;;;3.30;;
20559;SDS011;10438;51.454;6.718;2022-12-20T12:06:26;8.23;;;3.07;;
20559;SDS011;10438;51.454;6.718;2022-12-20T12:12:00;8.20;;;3.10;;
20559;SDS011;10438;51.454;6.718;2022-12-20T12:14:49;7.70;;;3.13;;
20559;SDS011;10438;51.454;6.718;2022-12-20T12:17:37;9.60;;;3.70;;
20559;SDS011;10438;51.454;6.718;2022-12-20T12:20:31;10.67;;;4.20;;
20559;SDS011;10438;51.454;6.718;2022-12-20T12:23:11;10.70;;;4.30;;
20559;SDS011;10438;51.454;6.718;2022-12-20T12:25:59;12.57;;;4.23;;
20559;SDS011;10438;51.454;6.718;2022-12-20T12:28:29;11.47;;;3.87;;
20559;SDS011;10438;51.454;6.718;2022-12-20T12:30:56;7.97;;;3.37;;
20559;SDS011;10438;51.454;6.718;2022-12-20T12:33:29;8.50;;;3.77;;
20559;SDS011;10438;51.454;6.718;2022-12-20T12:39:01;13.07;;;3.93;;
20559;SDS011;10438;51.454;6.718;2022-12-20T12:46:54;11.93;;;4.77;;
20559;SDS011;10438;51.454;6.718;2022-12-20T13:30:14;6.07;;;2.90;;
20559;SDS011;10438;51.454;6.718;2022-12-20T13:40:38;11.27;;;3.90;;
20559;SDS011;10438;51.454;6.718;2022-12-20T13:43:54;8.47;;;3.40;;
20559;SDS011;10438;51.454;6.718;2022-12-20T13:46:12;9.50;;;3.70;;
20559;SDS011;10438;51.454;6.718;2022-12-20T13:48:49;14.00;;;3.90;;
20559;SDS011;10438;51.454;6.718;2022-12-20T13:51:23;8.07;;;3.53;;
20559;SDS011;10438;51.454;6.718;2022-12-20T13:53:52;8.00;;;3.67;;
20559;SDS011;10438;51.454;6.718;2022-12-20T13:58:54;11.57;;;3.97;;
20559;SDS011;10438;51.454;6.718;2022-12-20T14:01:21;11.77;;;3.57;;
20559;SDS011;10438;51.454;6.718;2022-12-20T14:03:48;8.97;;;4.27;;
20559;SDS011;10438;51.454;6.718;2022-12-20T14:06:16;9.93;;;4.10;;
20559;SDS011;10438;51.454;6.718;2022-12-20T14:08:45;11.10;;;4.13;;
20559;SDS011;10438;51.454;6.718;2022-12-20T14:13:50;11.13;;;4.53;;
20559;SDS011;10438;51.454;6.718;2022-12-20T14:16:18;13.43;;;5.10;;
20559;SDS011;10438;51.454;6.718;2022-12-20T14:21:26;9.47;;;4.50;;
20559;SDS011;10438;51.454;6.718;2022-12-20T14:23:53;11.60;;;4.97;;
20559;SDS011;10438;51.454;6.718;2022-12-20T14:26:22;8.57;;;4.20;;
20559;SDS011;10438;51.454;6.718;2022-12-20T14:28:53;9.33;;;4.50;;
20559;SDS011;10438;51.454;6.718;2022-12-20T14:31:25;8.13;;;4.60;;
20559;SDS011;10438;51.454;6.718;2022-12-20T14:34:00;9.83;;;4.70;;
20559;SDS011;10438;51.454;6.718;2022-12-20T14:36:28;10.60;;;4.67;;
20559;SDS011;10438;51.454;6.718;2022-12-20T14:38:55;12.40;;;4.40;;
20559;SDS011;10438;51.454;6.718;2022-12-20T14:41:37;14.50;;;5.10;;
20559;SDS011;10438;51.454;6.718;2022-12-20T14:44:19;9.07;;;4.37;;
20559;SDS011;10438;51.454;6.718;2022-12-20T14:46:47;10.43;;;4.80;;
20559;SDS011;10438;51.454;6.718;2022-12-20T14:49:24;12.10;;;4.53;;
20559;SDS011;10438;51.454;6.718;2022-12-20T14:54:47;12.33;;;4.67;;
20559;SDS011;10438;51.454;6.718;2022-12-20T14:57:22;11.73;;;4.70;;
20559;SDS011;10438;51.454;6.718;2022-12-20T15:08:09;10.13;;;5.20;;
20559;SDS011;10438;51.454;6.718;2022-12-20T15:13:42;13.17;;;5.53;;
20559;SDS011;10438;51.454;6.718;2022-12-20T15:16:15;12.87;;;5.80;;
20559;SDS011;10438;51.454;6.718;2022-12-20T15:18:49;13.70;;;5.37;;
20559;SDS011;10438;51.454;6.718;2022-12-20T15:21:28;10.53;;;5.90;;
20559;SDS011;10438;51.454;6.718;2022-12-20T15:23:54;12.30;;;5.40;;
20559;SDS011;10438;51.454;6.718;2022-12-20T15:26:23;11.70;;;6.00;;
20559;SDS011;10438;51.454;6.718;2022-12-20T15:28:49;18.23;;;5.90;;
20559;SDS011;10438;51.454;6.718;2022-12-20T15:31:16;16.17;;;7.03;;
20559;SDS011;10438;51.454;6.718;2022-12-20T15:33:44;14.10;;;6.80;;
20559;SDS011;10438;51.454;6.718;2022-12-20T15:36:18;17.43;;;7.33;;
20559;SDS011;10438;51.454;6.718;2022-12-20T15:38:52;19.17;;;8.57;;
20559;SDS011;10438;51.454;6.718;2022-12-20T15:41:30;18.07;;;8.20;;
20559;SDS011;10438;51.454;6.718;2022-12-20T15:44:04;16.50;;;7.73;;
20559;SDS011;10438;51.454;6.718;2022-12-20T15:46:31;21.83;;;7.67;;
20559;SDS011;10438;51.454;6.718;2022-12-20T15:48:57;19.73;;;7.10;;
20559;SDS011;10438;51.454;6.718;2022-12-20T15:53:54;14.07;;;6.40;;
20559;SDS011;10438;51.454;6.718;2022-12-20T15:56:21;15.70;;;7.00;;
20559;SDS011;10438;51.454;6.718;2022-12-20T15:58:49;14.73;;;6.67;;
20559;SDS011;10438;51.454;6.718;2022-12-20T16:01:37;15.57;;;6.30;;
20559;SDS011;10438;51.454;6.718;2022-12-20T16:04:03;12.90;;;5.93;;
20559;SDS011;10438;51.454;6.718;2022-12-20T16:06:29;14.00;;;6.10;;
20559;SDS011;10438;51.454;6.718;2022-12-20T16:08:55;14.87;;;6.50;;
20559;SDS011;10438;51.454;6.718;2022-12-20T16:11:26;19.27;;;6.30;;
20559;SDS011;10438;51.454;6.718;2022-12-20T16:13:53;12.63;;;6.03;;
20559;SDS011;10438;51.454;6.718;2022-12-20T16:16:20;16.67;;;6.10;;
20559;SDS011;10438;51.454;6.718;2022-12-20T16:18:51;14.30;;;6.20;;
20559;SDS011;10438;51.454;6.718;2022-12-20T16:21:28;16.37;;;5.80;;
20559;SDS011;10438;51.454;6.718;2022-12-20T16:23:56;13.80;;;5.67;;
20559;SDS011;10438;51.454;6.718;2022-12-20T16:26:23;16.23;;;6.30;;
20559;SDS011;10438;51.454;6.718;2022-12-20T16:28:50;14.67;;;6.33;;
20559;SDS011;10438;51.454;6.718;2022-12-20T16:31:22;15.93;;;6.50;;
20559;SDS011;10438;51.454;6.718;2022-12-20T16:33:55;17.27;;;6.50;;
20559;SDS011;10438;51.454;6.718;2022-12-20T16:36:22;11.23;;;6.50;;
20559;SDS011;10438;51.454;6.718;2022-12-20T16:38:48;17.83;;;7.20;;
20559;SDS011;10438;51.454;6.718;2022-12-20T16:41:15;14.23;;;6.73;;
20559;SDS011;10438;51.454;6.718;2022-12-20T16:43:43;20.87;;;6.97;;
20559;SDS011;10438;51.454;6.718;2022-12-20T16:46:14;19.00;;;7.40;;
20559;SDS011;10438;51.454;6.718;2022-12-20T16:48:42;14.53;;;7.70;;
20559;SDS011;10438;51.454;6.718;2022-12-20T16:51:20;15.80;;;8.47;;
20559;SDS011;10438;51.454;6.718;2022-12-20T16:53:53;17.07;;;8.07;;
20559;SDS011;10438;51.454;6.718;2022-12-20T16:56:20;19.83;;;9.60;;
20559;SDS011;10438;51.454;6.718;2022-12-20T16:58:46;19.97;;;8.97;;
20559;SDS011;10438;51.454;6.718;2022-12-20T17:01:15;19.67;;;10.50;;
20559;SDS011;10438;51.454;6.718;2022-12-20T17:03:42;24.87;;;10.13;;
20559;SDS011;10438;51.454;6.718;2022-12-20T17:06:10;20.47;;;9.73;;
20559;SDS011;10438;51.454;6.718;2022-12-20T17:08:36;22.50;;;9.13;;
20559;SDS011;10438;51.454;6.718;2022-12-20T17:11:04;24.73;;;9.00;;
20559;SDS011;10438;51.454;6.718;2022-12-20T17:13:51;20.93;;;9.30;;
20559;SDS011;10438;51.454;6.718;2022-12-20T17:16:17;22.23;;;8.37;;